sensor_id;sensor_type;location;lat;lon;timestamp;pressure;altitude;pressure_sealevel;temperature;humidity
9676;BME280;4876;42.656;23.292;2024-03-02T00:00:08;93796.41;;;6.70;77.95
9676;BME280;4876;42.656;23.292;2024-03-02T00:02:45;93798.50;;;6.60;79.79
9676;BME280;4876;42.656;23.292;2024-03-02T00:05:12;93813.13;;;6.62;79.45
9676;BME280;4876;42.656;23.292;2024-03-02T00:07:41;93812.53;;;6.64;79.56
9676;BME280;4876;42.656;23.292;2024-03-02T00:10:09;93812.09;;;6.67;79.51
9676;BME280;4876;42.656;23.292;2024-03-02T00:12:38;93813.13;;;6.62;78.73
9676;BME280;4876;42.656;23.292;2024-03-02T00:17:55;93811.75;;;6.73;78.30
9676;BME280;4876;42.656;23.292;2024-03-02T00:20:24;93821.13;;;6.79;78.29
9676;BME280;4876;42.656;23.292;2024-03-02T00:23:01;93819.97;;;6.83;78.16
9676;BME280;4876;42.656;23.292;2024-03-02T00:25:38;93825.75;;;6.87;78.05
9676;BME280;4876;42.656;23.292;2024-03-02T00:28:05;93828.09;;;6.81;78.50
9676;BME280;4876;42.656;23.292;2024-03-02T00:30:44;93825.66;;;6.75;78.51
9676;BME280;4876;42.656;23.292;2024-03-02T00:33:16;93831.72;;;7.04;78.09
9676;BME280;4876;42.656;23.292;2024-03-02T00:35:44;93822.06;;;6.94;78.64
9676;BME280;4876;42.656;23.292;2024-03-02T00:38:10;93821.13;;;7.01;78.66
9676;BME280;4876;42.656;23.292;2024-03-02T00:40:35;93811.31;;;6.98;77.48
9676;BME280;4876;42.656;23.292;2024-03-02T00:43:02;93818.13;;;6.97;78.25
9676;BME280;4876;42.656;23.292;2024-03-02T00:45:28;93813.66;;;6.92;78.61
9676;BME280;4876;42.656;23.292;2024-03-02T00:47:54;93802.03;;;6.93;77.57
9676;BME280;4876;42.656;23.292;2024-03-02T00:50:19;93817.59;;;6.89;78.05
9676;BME280;4876;42.656;23.292;2024-03-02T00:52:46;93811.13;;;6.84;78.39
9676;BME280;4876;42.656;23.292;2024-03-02T00:55:14;93814.00;;;6.86;78.74
9676;BME280;4876;42.656;23.292;2024-03-02T00:57:39;93810.84;;;6.80;78.75
9676;BME280;4876;42.656;23.292;2024-03-02T01:00:05;93815.69;;;6.70;78.87
9676;BME280;4876;42.656;23.292;2024-03-02T01:02:35;93817.06;;;6.81;79.59
9676;BME280;4876;42.656;23.292;2024-03-02T01:05:00;93806.69;;;6.69;80.76
9676;BME280;4876;42.656;23.292;2024-03-02T01:07:26;93816.16;;;6.88;79.17
9676;BME280;4876;42.656;23.292;2024-03-02T01:09:51;93812.81;;;7.10;79.17
9676;BME280;4876;42.656;23.292;2024-03-02T01:12:17;93813.13;;;7.05;79.04
9676;BME280;4876;42.656;23.292;2024-03-02T01:14:42;93803.69;;;7.08;79.41
9676;BME280;4876;42.656;23.292;2024-03-02T01:17:08;93790.34;;;7.04;79.54
9676;BME280;4876;42.656;23.292;2024-03-02T01:19:33;93794.69;;;7.07;78.77
9676;BME280;4876;42.656;23.292;2024-03-02T01:21:59;93793.09;;;7.04;79.69
9676;BME280;4876;42.656;23.292;2024-03-02T01:24:24;93782.19;;;6.73;80.12
9676;BME280;4876;42.656;23.292;2024-03-02T01:26:50;93791.06;;;7.05;78.43
9676;BME280;4876;42.656;23.292;2024-03-02T01:29:16;93795.13;;;7.04;79.43
9676;BME280;4876;42.656;23.292;2024-03-02T01:31:41;93781.75;;;7.10;78.67
9676;BME280;4876;42.656;23.292;2024-03-02T01:34:08;93784.56;;;7.21;78.15
9676;BME280;4876;42.656;23.292;2024-03-02T01:36:34;93788.28;;;7.26;78.38
9676;BME280;4876;42.656;23.292;2024-03-02T01:38:59;93781.34;;;7.36;78.30
9676;BME280;4876;42.656;23.292;2024-03-02T01:41:25;93782.94;;;7.51;76.91
9676;BME280;4876;42.656;23.292;2024-03-02T01:43:50;93784.00;;;7.46;77.07
9676;BME280;4876;42.656;23.292;2024-03-02T01:46:16;93777.53;;;7.42;77.78
9676;BME280;4876;42.656;23.292;2024-03-02T01:48:41;93783.22;;;7.55;76.42
9676;BME280;4876;42.656;23.292;2024-03-02T01:51:07;93778.00;;;7.05;79.28
9676;BME280;4876;42.656;23.292;2024-03-02T01:53:34;93776.66;;;6.95;80.11
9676;BME280;4876;42.656;23.292;2024-03-02T01:55:59;93776.53;;;7.25;79.18
9676;BME280;4876;42.656;23.292;2024-03-02T01:58:27;93779.88;;;7.24;78.92
9676;BME280;4876;42.656;23.292;2024-03-02T02:00:52;93781.97;;;7.14;79.91
9676;BME280;4876;42.656;23.292;2024-03-02T02:03:18;93774.09;;;7.20;79.14
9676;BME280;4876;42.656;23.292;2024-03-02T02:05:43;93780.41;;;7.32;79.44
9676;BME280;4876;42.656;23.292;2024-03-02T02:08:09;93765.78;;;7.41;78.89
9676;BME280;4876;42.656;23.292;2024-03-02T02:10:35;93773.09;;;7.48;78.82
9676;BME280;4876;42.656;23.292;2024-03-02T02:13:00;93770.84;;;7.56;78.63
9676;BME280;4876;42.656;23.292;2024-03-02T02:15:30;93775.44;;;7.63;79.01
9676;BME280;4876;42.656;23.292;2024-03-02T02:17:56;93777.34;;;7.72;78.99
9676;BME280;4876;42.656;23.292;2024-03-02T02:20:23;93779.03;;;7.77;77.68
9676;BME280;4876;42.656;23.292;2024-03-02T02:23:01;93775.06;;;7.57;77.83
9676;BME280;4876;42.656;23.292;2024-03-02T02:25:28;93772.66;;;7.63;77.32
9676;BME280;4876;42.656;23.292;2024-03-02T02:27:55;93771.00;;;7.70;77.61
9676;BME280;4876;42.656;23.292;2024-03-02T02:30:26;93768.72;;;7.66;77.57
9676;BME280;4876;42.656;23.292;2024-03-02T02:32:52;93774.25;;;7.66;77.84
9676;BME280;4876;42.656;23.292;2024-03-02T02:35:17;93762.69;;;7.58;76.80
9676;BME280;4876;42.656;23.292;2024-03-02T02:37:44;93762.34;;;7.64;77.12
9676;BME280;4876;42.656;23.292;2024-03-02T02:40:11;93773.66;;;7.79;77.11
9676;BME280;4876;42.656;23.292;2024-03-02T02:42:37;93772.09;;;7.76;77.27
9676;BME280;4876;42.656;23.292;2024-03-02T02:45:04;93771.38;;;7.87;76.27
9676;BME280;4876;42.656;23.292;2024-03-02T02:47:30;93777.13;;;7.91;76.08
9676;BME280;4876;42.656;23.292;2024-03-02T02:49:55;93776.50;;;7.70;77.14
9676;BME280;4876;42.656;23.292;2024-03-02T02:52:21;93778.19;;;7.63;77.55
9676;BME280;4876;42.656;23.292;2024-03-02T02:54:47;93779.06;;;7.89;76.03
9676;BME280;4876;42.656;23.292;2024-03-02T02:57:12;93765.13;;;7.75;76.36
9676;BME280;4876;42.656;23.292;2024-03-02T02:59:38;93771.31;;;7.53;77.82
9676;BME280;4876;42.656;23.292;2024-03-02T03:02:04;93777.81;;;7.57;77.98
9676;BME280;4876;42.656;23.292;2024-03-02T03:04:29;93783.72;;;7.75;76.82
9676;BME280;4876;42.656;23.292;2024-03-02T03:06:55;93768.13;;;7.79;76.02
9676;BME280;4876;42.656;23.292;2024-03-02T03:09:20;93777.38;;;7.95;75.77
9676;BME280;4876;42.656;23.292;2024-03-02T03:11:46;93773.78;;;7.81;76.07
9676;BME280;4876;42.656;23.292;2024-03-02T03:14:11;93783.50;;;7.38;78.67
9676;BME280;4876;42.656;23.292;2024-03-02T03:16:37;93774.19;;;7.55;77.46
9676;BME280;4876;42.656;23.292;2024-03-02T03:19:02;93768.22;;;7.70;76.85
9676;BME280;4876;42.656;23.292;2024-03-02T03:21:28;93776.03;;;7.85;76.60
9676;BME280;4876;42.656;23.292;2024-03-02T03:23:53;93772.22;;;7.78;76.88
9676;BME280;4876;42.656;23.292;2024-03-02T03:26:20;93776.84;;;7.64;77.06
9676;BME280;4876;42.656;23.292;2024-03-02T03:28:46;93785.06;;;7.85;76.05
9676;BME280;4876;42.656;23.292;2024-03-02T03:31:11;93782.44;;;7.87;76.12
9676;BME280;4876;42.656;23.292;2024-03-02T03:33:37;93776.75;;;7.62;77.00
9676;BME280;4876;42.656;23.292;2024-03-02T03:36:03;93774.72;;;7.30;79.69
9676;BME280;4876;42.656;23.292;2024-03-02T03:38:29;93780.81;;;7.17;79.38
9676;BME280;4876;42.656;23.292;2024-03-02T03:40:55;93775.44;;;7.30;78.77
9676;BME280;4876;42.656;23.292;2024-03-02T03:43:21;93776.94;;;7.43;79.23
9676;BME280;4876;42.656;23.292;2024-03-02T03:45:46;93784.78;;;7.58;78.29
9676;BME280;4876;42.656;23.292;2024-03-02T03:48:12;93780.19;;;7.51;78.30
9676;BME280;4876;42.656;23.292;2024-03-02T03:50:37;93782.72;;;7.59;77.65
9676;BME280;4876;42.656;23.292;2024-03-02T03:53:03;93783.31;;;7.57;77.26
9676;BME280;4876;42.656;23.292;2024-03-02T03:55:29;93776.84;;;7.64;77.30
9676;BME280;4876;42.656;23.292;2024-03-02T03:57:54;93774.25;;;7.66;77.51
9676;BME280;4876;42.656;23.292;2024-03-02T04:00:20;93780.09;;;7.72;76.82
9676;BME280;4876;42.656;23.292;2024-03-02T04:02:45;93781.94;;;7.79;76.87
9676;BME280;4876;42.656;23.292;2024-03-02T04:05:11;93785.06;;;7.85;76.51
9676;BME280;4876;42.656;23.292;2024-03-02T04:07:37;93780.50;;;7.90;76.85
9676;BME280;4876;42.656;23.292;2024-03-02T04:10:09;93778.56;;;7.81;76.89
9676;BME280;4876;42.656;23.292;2024-03-02T04:12:36;93783.16;;;7.99;76.96
9676;BME280;4876;42.656;23.292;2024-03-02T04:15:06;93776.91;;;7.87;77.15
9676;BME280;4876;42.656;23.292;2024-03-02T04:17:33;93787.47;;;7.91;77.29
9676;BME280;4876;42.656;23.292;2024-03-02T04:19:59;93782.06;;;7.81;77.68
9676;BME280;4876;42.656;23.292;2024-03-02T04:22:26;93777.00;;;7.66;77.98
9676;BME280;4876;42.656;23.292;2024-03-02T04:24:52;93775.41;;;7.52;79.46
9676;BME280;4876;42.656;23.292;2024-03-02T04:27:17;93774.44;;;7.59;79.42
9676;BME280;4876;42.656;23.292;2024-03-02T04:29:43;93785.47;;;7.59;79.17
9676;BME280;4876;42.656;23.292;2024-03-02T04:32:08;93793.41;;;7.53;79.47
9676;BME280;4876;42.656;23.292;2024-03-02T04:34:34;93794.03;;;7.30;79.64
9676;BME280;4876;42.656;23.292;2024-03-02T04:36:59;93788.53;;;7.30;80.24
9676;BME280;4876;42.656;23.292;2024-03-02T04:39:25;93781.75;;;7.54;78.98
9676;BME280;4876;42.656;23.292;2024-03-02T04:41:50;93790.19;;;7.23;80.24
9676;BME280;4876;42.656;23.292;2024-03-02T04:44:16;93785.19;;;7.31;80.41
9676;BME280;4876;42.656;23.292;2024-03-02T04:46:42;93790.69;;;7.31;79.79
9676;BME280;4876;42.656;23.292;2024-03-02T04:49:07;93795.53;;;7.43;79.77
9676;BME280;4876;42.656;23.292;2024-03-02T04:51:33;93796.28;;;7.55;79.60
9676;BME280;4876;42.656;23.292;2024-03-02T04:53:58;93790.03;;;7.54;78.76
9676;BME280;4876;42.656;23.292;2024-03-02T04:56:24;93793.06;;;7.58;79.22
9676;BME280;4876;42.656;23.292;2024-03-02T04:59:25;93800.63;;;7.69;79.53
9676;BME280;4876;42.656;23.292;2024-03-02T05:01:50;93800.19;;;7.84;79.95
9676;BME280;4876;42.656;23.292;2024-03-02T05:04:16;93789.59;;;7.81;79.15
9676;BME280;4876;42.656;23.292;2024-03-02T05:06:41;93793.56;;;7.66;80.02
9676;BME280;4876;42.656;23.292;2024-03-02T05:09:08;93793.69;;;7.68;79.74
9676;BME280;4876;42.656;23.292;2024-03-02T05:11:34;93794.88;;;7.65;80.09
9676;BME280;4876;42.656;23.292;2024-03-02T05:14:03;93802.47;;;7.44;80.59
9676;BME280;4876;42.656;23.292;2024-03-02T05:16:28;93814.69;;;7.29;82.08
9676;BME280;4876;42.656;23.292;2024-03-02T05:18:54;93803.59;;;7.50;81.40
9676;BME280;4876;42.656;23.292;2024-03-02T05:21:19;93813.34;;;7.63;81.05
9676;BME280;4876;42.656;23.292;2024-03-02T05:23:45;93807.13;;;7.74;80.19
9676;BME280;4876;42.656;23.292;2024-03-02T05:26:10;93811.03;;;7.48;81.42
9676;BME280;4876;42.656;23.292;2024-03-02T05:28:39;93816.44;;;7.57;81.26
9676;BME280;4876;42.656;23.292;2024-03-02T05:31:05;93813.56;;;7.55;80.41
9676;BME280;4876;42.656;23.292;2024-03-02T05:33:30;93823.25;;;7.45;81.62
9676;BME280;4876;42.656;23.292;2024-03-02T05:35:58;93822.28;;;7.40;81.38
9676;BME280;4876;42.656;23.292;2024-03-02T05:38:23;93835.25;;;7.49;81.85
9676;BME280;4876;42.656;23.292;2024-03-02T05:40:49;93841.16;;;7.55;81.76
9676;BME280;4876;42.656;23.292;2024-03-02T05:43:14;93823.50;;;7.49;80.95
9676;BME280;4876;42.656;23.292;2024-03-02T05:45:40;93830.00;;;7.53;80.88
9676;BME280;4876;42.656;23.292;2024-03-02T05:48:08;93837.06;;;7.56;81.12
9676;BME280;4876;42.656;23.292;2024-03-02T05:50:35;93839.63;;;7.64;80.67
9676;BME280;4876;42.656;23.292;2024-03-02T05:53:00;93846.06;;;7.57;80.98
9676;BME280;4876;42.656;23.292;2024-03-02T05:55:26;93835.66;;;7.67;81.10
9676;BME280;4876;42.656;23.292;2024-03-02T05:57:51;93839.53;;;7.73;80.43
9676;BME280;4876;42.656;23.292;2024-03-02T06:00:23;93838.34;;;7.76;80.20
9676;BME280;4876;42.656;23.292;2024-03-02T06:02:48;93838.22;;;7.74;80.78
9676;BME280;4876;42.656;23.292;2024-03-02T06:05:15;93841.34;;;7.80;81.05
9676;BME280;4876;42.656;23.292;2024-03-02T06:07:42;93834.16;;;7.87;80.00
9676;BME280;4876;42.656;23.292;2024-03-02T06:10:08;93839.81;;;7.89;80.67
9676;BME280;4876;42.656;23.292;2024-03-02T06:12:34;93836.31;;;7.88;81.05
9676;BME280;4876;42.656;23.292;2024-03-02T06:15:00;93847.75;;;7.94;79.68
9676;BME280;4876;42.656;23.292;2024-03-02T06:17:25;93842.44;;;7.87;79.54
9676;BME280;4876;42.656;23.292;2024-03-02T06:19:51;93841.44;;;7.82;80.32
9676;BME280;4876;42.656;23.292;2024-03-02T06:22:16;93844.59;;;7.77;80.73
9676;BME280;4876;42.656;23.292;2024-03-02T06:24:42;93843.09;;;7.64;81.04
9676;BME280;4876;42.656;23.292;2024-03-02T06:27:07;93847.75;;;7.50;81.02
9676;BME280;4876;42.656;23.292;2024-03-02T06:29:33;93849.00;;;7.37;82.13
9676;BME280;4876;42.656;23.292;2024-03-02T06:32:02;93846.41;;;7.18;83.65
9676;BME280;4876;42.656;23.292;2024-03-02T06:34:27;93849.75;;;7.17;83.19
9676;BME280;4876;42.656;23.292;2024-03-02T06:36:53;93847.53;;;7.04;84.22
9676;BME280;4876;42.656;23.292;2024-03-02T06:39:18;93862.63;;;7.03;84.49
9676;BME280;4876;42.656;23.292;2024-03-02T06:41:44;93853.19;;;7.06;84.92
9676;BME280;4876;42.656;23.292;2024-03-02T06:44:12;93848.25;;;7.04;84.58
9676;BME280;4876;42.656;23.292;2024-03-02T06:46:38;93861.50;;;6.96;84.59
9676;BME280;4876;42.656;23.292;2024-03-02T06:49:04;93857.97;;;7.05;84.18
9676;BME280;4876;42.656;23.292;2024-03-02T06:51:30;93862.00;;;6.93;84.04
9676;BME280;4876;42.656;23.292;2024-03-02T06:53:55;93860.00;;;6.84;85.12
9676;BME280;4876;42.656;23.292;2024-03-02T06:56:21;93856.97;;;6.79;85.24
9676;BME280;4876;42.656;23.292;2024-03-02T06:58:46;93865.38;;;6.82;85.35
9676;BME280;4876;42.656;23.292;2024-03-02T07:01:12;93867.19;;;6.67;85.49
9676;BME280;4876;42.656;23.292;2024-03-02T07:03:38;93862.09;;;6.73;86.07
9676;BME280;4876;42.656;23.292;2024-03-02T07:06:06;93868.38;;;6.64;87.21
9676;BME280;4876;42.656;23.292;2024-03-02T07:08:32;93869.03;;;6.74;86.97
9676;BME280;4876;42.656;23.292;2024-03-02T07:10:57;93866.16;;;6.72;86.04
9676;BME280;4876;42.656;23.292;2024-03-02T07:13:23;93873.50;;;6.79;86.23
9676;BME280;4876;42.656;23.292;2024-03-02T07:15:48;93862.16;;;6.85;85.09
9676;BME280;4876;42.656;23.292;2024-03-02T07:18:29;93873.78;;;6.84;86.07
9676;BME280;4876;42.656;23.292;2024-03-02T07:20:56;93872.28;;;6.92;85.69
9676;BME280;4876;42.656;23.292;2024-03-02T07:23:26;93873.34;;;6.87;84.96
9676;BME280;4876;42.656;23.292;2024-03-02T07:26:09;93873.56;;;6.70;86.30
9676;BME280;4876;42.656;23.292;2024-03-02T07:28:37;93875.56;;;6.79;85.55
9676;BME280;4876;42.656;23.292;2024-03-02T07:31:07;93882.38;;;6.78;85.59
9676;BME280;4876;42.656;23.292;2024-03-02T07:33:33;93873.91;;;6.86;85.63
9676;BME280;4876;42.656;23.292;2024-03-02T07:35:59;93876.78;;;6.88;84.37
9676;BME280;4876;42.656;23.292;2024-03-02T07:38:26;93878.03;;;6.75;84.36
9676;BME280;4876;42.656;23.292;2024-03-02T07:40:52;93882.31;;;6.88;84.18
9676;BME280;4876;42.656;23.292;2024-03-02T07:43:19;93882.47;;;6.90;85.34
9676;BME280;4876;42.656;23.292;2024-03-02T07:45:47;93888.09;;;7.13;84.28
9676;BME280;4876;42.656;23.292;2024-03-02T07:48:14;93891.59;;;7.13;82.78
9676;BME280;4876;42.656;23.292;2024-03-02T07:50:39;93886.94;;;6.95;84.05
9676;BME280;4876;42.656;23.292;2024-03-02T07:53:05;93889.94;;;6.99;83.41
9676;BME280;4876;42.656;23.292;2024-03-02T07:55:32;93891.25;;;6.98;84.79
9676;BME280;4876;42.656;23.292;2024-03-02T07:57:58;93892.81;;;7.01;84.42
9676;BME280;4876;42.656;23.292;2024-03-02T08:00:25;93889.59;;;7.04;84.30
9676;BME280;4876;42.656;23.292;2024-03-02T08:02:51;93887.81;;;6.88;83.40
9676;BME280;4876;42.656;23.292;2024-03-02T08:05:18;93901.16;;;6.91;83.91
9676;BME280;4876;42.656;23.292;2024-03-02T08:07:46;93895.75;;;6.72;84.46
9676;BME280;4876;42.656;23.292;2024-03-02T08:10:13;93898.91;;;6.78;84.47
9676;BME280;4876;42.656;23.292;2024-03-02T08:12:39;93909.75;;;6.86;83.75
9676;BME280;4876;42.656;23.292;2024-03-02T08:15:05;93913.03;;;6.94;83.93
9676;BME280;4876;42.656;23.292;2024-03-02T08:17:30;93913.13;;;6.74;84.40
9676;BME280;4876;42.656;23.292;2024-03-02T08:19:56;93902.25;;;6.76;84.21
9676;BME280;4876;42.656;23.292;2024-03-02T08:22:23;93902.19;;;6.86;84.43
9676;BME280;4876;42.656;23.292;2024-03-02T08:24:48;93901.75;;;6.90;84.10
9676;BME280;4876;42.656;23.292;2024-03-02T08:27:14;93898.69;;;6.95;84.08
9676;BME280;4876;42.656;23.292;2024-03-02T08:29:40;93908.78;;;7.02;84.81
9676;BME280;4876;42.656;23.292;2024-03-02T08:32:06;93903.81;;;7.10;84.42
9676;BME280;4876;42.656;23.292;2024-03-02T08:34:32;93900.72;;;7.16;84.84
9676;BME280;4876;42.656;23.292;2024-03-02T08:36:59;93895.44;;;6.99;84.66
9676;BME280;4876;42.656;23.292;2024-03-02T08:39:24;93896.63;;;6.96;84.31
9676;BME280;4876;42.656;23.292;2024-03-02T08:41:50;93894.88;;;7.00;84.04
9676;BME280;4876;42.656;23.292;2024-03-02T08:44:16;93896.50;;;7.15;85.32
9676;BME280;4876;42.656;23.292;2024-03-02T08:46:42;93894.91;;;7.33;83.75
9676;BME280;4876;42.656;23.292;2024-03-02T08:49:08;93895.56;;;7.43;82.35
9676;BME280;4876;42.656;23.292;2024-03-02T08:51:34;93903.06;;;7.52;81.70
9676;BME280;4876;42.656;23.292;2024-03-02T08:53:59;93904.75;;;7.57;81.81
9676;BME280;4876;42.656;23.292;2024-03-02T08:56:25;93896.81;;;7.52;81.15
9676;BME280;4876;42.656;23.292;2024-03-02T08:58:51;93901.59;;;7.51;80.84
9676;BME280;4876;42.656;23.292;2024-03-02T09:01:18;93903.25;;;7.77;81.71
9676;BME280;4876;42.656;23.292;2024-03-02T09:03:44;93898.56;;;7.68;81.46
9676;BME280;4876;42.656;23.292;2024-03-02T09:06:11;93900.69;;;7.58;81.49
9676;BME280;4876;42.656;23.292;2024-03-02T09:08:37;93903.69;;;7.62;81.89
9676;BME280;4876;42.656;23.292;2024-03-02T09:11:04;93909.25;;;7.74;81.21
9676;BME280;4876;42.656;23.292;2024-03-02T09:13:31;93903.66;;;7.83;81.13
9676;BME280;4876;42.656;23.292;2024-03-02T09:15:56;93910.47;;;7.82;80.79
9676;BME280;4876;42.656;23.292;2024-03-02T09:18:22;93912.28;;;7.78;81.21
9676;BME280;4876;42.656;23.292;2024-03-02T09:20:47;93917.00;;;7.87;80.92
9676;BME280;4876;42.656;23.292;2024-03-02T09:23:13;93918.06;;;7.82;80.52
9676;BME280;4876;42.656;23.292;2024-03-02T09:25:38;93920.47;;;7.87;79.73
9676;BME280;4876;42.656;23.292;2024-03-02T09:28:04;93922.13;;;7.81;81.00
9676;BME280;4876;42.656;23.292;2024-03-02T09:30:30;93924.38;;;8.06;79.58
9676;BME280;4876;42.656;23.292;2024-03-02T09:32:55;93926.56;;;8.19;78.90
9676;BME280;4876;42.656;23.292;2024-03-02T09:35:21;93917.91;;;8.13;77.92
9676;BME280;4876;42.656;23.292;2024-03-02T09:37:46;93915.03;;;8.11;78.28
9676;BME280;4876;42.656;23.292;2024-03-02T09:40:13;93922.56;;;8.10;78.16
9676;BME280;4876;42.656;23.292;2024-03-02T09:42:40;93920.41;;;8.09;79.59
9676;BME280;4876;42.656;23.292;2024-03-02T09:45:06;93923.19;;;8.20;78.13
9676;BME280;4876;42.656;23.292;2024-03-02T09:47:32;93922.84;;;8.26;77.99
9676;BME280;4876;42.656;23.292;2024-03-02T09:49:58;93929.34;;;8.19;78.93
9676;BME280;4876;42.656;23.292;2024-03-02T09:52:24;93924.66;;;8.21;78.08
9676;BME280;4876;42.656;23.292;2024-03-02T09:54:50;93922.41;;;8.29;78.18
9676;BME280;4876;42.656;23.292;2024-03-02T09:57:15;93918.56;;;8.34;78.57
9676;BME280;4876;42.656;23.292;2024-03-02T09:59:41;93926.06;;;8.22;79.00
9676;BME280;4876;42.656;23.292;2024-03-02T10:02:07;93925.75;;;8.28;78.43
9676;BME280;4876;42.656;23.292;2024-03-02T10:04:33;93922.19;;;8.37;78.25
9676;BME280;4876;42.656;23.292;2024-03-02T10:07:17;93927.59;;;8.35;78.09
9676;BME280;4876;42.656;23.292;2024-03-02T10:09:48;93924.69;;;8.33;79.77
9676;BME280;4876;42.656;23.292;2024-03-02T10:12:17;93919.44;;;8.60;78.39
9676;BME280;4876;42.656;23.292;2024-03-02T10:14:43;93920.13;;;8.49;78.11
9676;BME280;4876;42.656;23.292;2024-03-02T10:17:11;93918.59;;;8.69;77.76
9676;BME280;4876;42.656;23.292;2024-03-02T10:19:37;93919.66;;;8.41;78.37
9676;BME280;4876;42.656;23.292;2024-03-02T10:22:08;93924.34;;;8.27;78.03
9676;BME280;4876;42.656;23.292;2024-03-02T10:24:39;93922.41;;;8.29;78.81
9676;BME280;4876;42.656;23.292;2024-03-02T10:27:19;93922.91;;;8.05;81.24
9676;BME280;4876;42.656;23.292;2024-03-02T10:29:47;93919.16;;;7.88;82.19
9676;BME280;4876;42.656;23.292;2024-03-02T10:32:13;93921.22;;;7.99;81.59
9676;BME280;4876;42.656;23.292;2024-03-02T10:34:44;93918.13;;;8.05;82.07
9676;BME280;4876;42.656;23.292;2024-03-02T10:37:11;93918.31;;;7.86;82.88
9676;BME280;4876;42.656;23.292;2024-03-02T10:39:37;93914.84;;;7.64;83.78
9676;BME280;4876;42.656;23.292;2024-03-02T10:42:05;93922.13;;;7.81;83.42
9676;BME280;4876;42.656;23.292;2024-03-02T10:44:32;93921.78;;;7.86;81.38
9676;BME280;4876;42.656;23.292;2024-03-02T10:47:03;93917.84;;;7.89;82.77
9676;BME280;4876;42.656;23.292;2024-03-02T10:49:30;93906.44;;;7.95;82.22
9676;BME280;4876;42.656;23.292;2024-03-02T10:51:58;93910.84;;;7.77;83.64
9676;BME280;4876;42.656;23.292;2024-03-02T10:54:24;93918.31;;;7.86;82.90
9676;BME280;4876;42.656;23.292;2024-03-02T10:56:53;93911.38;;;7.96;83.08
9676;BME280;4876;42.656;23.292;2024-03-02T11:01:56;93904.38;;;7.84;83.95
9676;BME280;4876;42.656;23.292;2024-03-02T11:04:24;93907.22;;;7.74;82.65
9676;BME280;4876;42.656;23.292;2024-03-02T11:06:51;93906.72;;;7.66;83.16
9676;BME280;4876;42.656;23.292;2024-03-02T11:09:22;93900.47;;;7.66;84.90
9676;BME280;4876;42.656;23.292;2024-03-02T11:12:26;93901.94;;;7.78;84.75
9676;BME280;4876;42.656;23.292;2024-03-02T11:14:55;93899.19;;;7.78;82.90
9676;BME280;4876;42.656;23.292;2024-03-02T11:17:21;93899.47;;;7.94;83.42
9676;BME280;4876;42.656;23.292;2024-03-02T11:19:47;93899.97;;;8.02;82.78
9676;BME280;4876;42.656;23.292;2024-03-02T11:22:14;93896.72;;;7.94;82.15
9676;BME280;4876;42.656;23.292;2024-03-02T11:24:51;93894.00;;;8.06;81.98
9676;BME280;4876;42.656;23.292;2024-03-02T11:32:59;93899.63;;;8.19;81.98
9676;BME280;4876;42.656;23.292;2024-03-02T11:35:25;93892.22;;;8.22;81.33
9676;BME280;4876;42.656;23.292;2024-03-02T11:37:51;93894.13;;;8.08;81.80
9676;BME280;4876;42.656;23.292;2024-03-02T11:40:24;93889.16;;;8.06;80.42
9676;BME280;4876;42.656;23.292;2024-03-02T11:42:50;93896.03;;;8.17;81.01
9676;BME280;4876;42.656;23.292;2024-03-02T11:45:25;93896.25;;;8.09;81.26
9676;BME280;4876;42.656;23.292;2024-03-02T11:47:53;93894.06;;;8.29;81.03
9676;BME280;4876;42.656;23.292;2024-03-02T11:50:52;93892.22;;;8.22;80.84
9676;BME280;4876;42.656;23.292;2024-03-02T11:53:20;93903.38;;;8.12;81.79
9676;BME280;4876;42.656;23.292;2024-03-02T11:55:46;93898.22;;;8.18;81.81
9676;BME280;4876;42.656;23.292;2024-03-02T11:58:13;93895.91;;;8.15;80.34
9676;BME280;4876;42.656;23.292;2024-03-02T12:00:39;93894.59;;;8.16;81.02
9676;BME280;4876;42.656;23.292;2024-03-02T12:03:09;93883.69;;;8.18;80.36
9676;BME280;4876;42.656;23.292;2024-03-02T12:05:37;93891.13;;;8.15;82.10
9676;BME280;4876;42.656;23.292;2024-03-02T12:08:04;93889.56;;;8.12;82.65
9676;BME280;4876;42.656;23.292;2024-03-02T12:10:30;93893.03;;;8.13;80.93
9676;BME280;4876;42.656;23.292;2024-03-02T12:13:00;93892.31;;;8.12;81.49
9676;BME280;4876;42.656;23.292;2024-03-02T12:15:31;93893.03;;;8.13;81.56
9676;BME280;4876;42.656;23.292;2024-03-02T12:17:58;93900.13;;;8.16;81.04
9676;BME280;4876;42.656;23.292;2024-03-02T12:20:26;93900.25;;;8.18;82.11
9676;BME280;4876;42.656;23.292;2024-03-02T12:22:53;93898.91;;;8.07;82.17
9676;BME280;4876;42.656;23.292;2024-03-02T12:25:23;93902.00;;;7.90;82.76
9676;BME280;4876;42.656;23.292;2024-03-02T12:27:50;93894.91;;;7.98;82.59
9676;BME280;4876;42.656;23.292;2024-03-02T12:30:17;93903.47;;;8.02;82.82
9676;BME280;4876;42.656;23.292;2024-03-02T12:32:44;93903.66;;;7.83;84.46
9676;BME280;4876;42.656;23.292;2024-03-02T12:35:13;93895.72;;;7.78;84.93
9676;BME280;4876;42.656;23.292;2024-03-02T12:37:49;93894.28;;;7.88;83.86
9676;BME280;4876;42.656;23.292;2024-03-02T12:40:17;93895.75;;;8.01;84.57
9676;BME280;4876;42.656;23.292;2024-03-02T12:42:46;93892.41;;;8.02;83.60
9676;BME280;4876;42.656;23.292;2024-03-02T12:45:12;93889.59;;;8.24;82.08
9676;BME280;4876;42.656;23.292;2024-03-02T12:47:40;93889.19;;;8.18;81.87
9676;BME280;4876;42.656;23.292;2024-03-02T12:50:07;93894.50;;;8.14;82.51
9676;BME280;4876;42.656;23.292;2024-03-02T12:52:33;93896.75;;;8.17;82.91
9676;BME280;4876;42.656;23.292;2024-03-02T12:55:00;93883.88;;;7.98;82.57
9676;BME280;4876;42.656;23.292;2024-03-02T12:57:28;93899.16;;;8.11;82.82
9676;BME280;4876;42.656;23.292;2024-03-02T13:00:05;93895.75;;;8.01;83.23
9676;BME280;4876;42.656;23.292;2024-03-02T13:02:40;93903.47;;;8.02;82.68
9676;BME280;4876;42.656;23.292;2024-03-02T13:05:07;93899.38;;;8.03;82.34
9676;BME280;4876;42.656;23.292;2024-03-02T13:07:39;93901.22;;;8.11;81.39
9676;BME280;4876;42.656;23.292;2024-03-02T13:10:06;93903.25;;;8.10;82.00
9676;BME280;4876;42.656;23.292;2024-03-02T13:12:35;93896.75;;;8.17;80.63
9676;BME280;4876;42.656;23.292;2024-03-02T13:15:02;93899.41;;;8.15;81.87
9676;BME280;4876;42.656;23.292;2024-03-02T13:17:29;93895.00;;;8.22;81.14
9676;BME280;4876;42.656;23.292;2024-03-02T13:19:58;93900.38;;;8.20;81.77
9676;BME280;4876;42.656;23.292;2024-03-02T13:22:24;93906.03;;;8.22;81.30
9676;BME280;4876;42.656;23.292;2024-03-02T13:24:50;93911.81;;;8.26;81.15
9676;BME280;4876;42.656;23.292;2024-03-02T13:27:17;93904.69;;;8.23;81.54
9676;BME280;4876;42.656;23.292;2024-03-02T13:29:46;93911.22;;;8.27;81.85
9676;BME280;4876;42.656;23.292;2024-03-02T13:32:13;93908.78;;;8.10;82.47